Terminal Aerodrome Forecast
Issued by NWS El Paso, TX

Home | Current Version | Previous Version | Text Only | Print | Product List | Glossary On
Versions: 1 2 3 4 5 6 7 8 9 10 11 12 13 14 15
000
FTUS44 KEPZ 190545
TAFELP
TAF
KELP 190545Z 1906/2006 25022G32KT P6SM VCSH SCT050 SCT100 BKN250
     FM190800 23015G25KT P6SM SCT060 SCT100 BKN250
     FM191400 25015G25KT P6SM VCSH FEW020 BKN040 BKN100
     FM191700 23025G35KT P6SM FEW025 BKN040 BKN090=

USA.gov is the U.S. government's official web portal to all federal, state and local government web resources and services.